Terminal Aerodrome Forecast
Issued by NWS

Current Version | Previous Version | Graphics & Text | Print | Product List | Glossary On
Versions: 1 2 3 4 5 6 7 8 9 10 11 12 13 14 15 16 17 18 19 20 21 22 23 24 25 26 27
000
FTUS41 KRLX 200500 RRA
TAFCKB
TAF
KCKB 200546Z 2006/2106 VRB03KT 4SM BR FEW040
      TEMPO 2006/2008 3/4SM BR SCT001
     FM200800 00000KT 6SM BR BKN035
     FM200900 00000KT P6SM BKN025
     FM201100 00000KT 6SM SHRA BR VCTS OVC025CB
     FM201300 VRB03KT P6SM VCTS OVC025CB
     FM201700 23006KT 6SM SHRA BR VCTS BKN025CB
     FM201900 23006KT P6SM VCTS BKN035CB
     FM210300 00000KT 4SM BR BKN100=

USA.gov is the U.S. government's official web portal to all federal, state and local government web resources and services.